sensor_id;sensor_type;location;lat;lon;timestamp;P1;durP1;ratioP1;P2;durP2;ratioP2
9898;SDS011;4988;49.238;6.698;2022-08-21T00:02:14;8.30;;;2.97;;
9898;SDS011;4988;49.238;6.698;2022-08-21T00:04:41;6.87;;;3.00;;
9898;SDS011;4988;49.238;6.698;2022-08-21T00:07:07;9.60;;;2.93;;
9898;SDS011;4988;49.238;6.698;2022-08-21T00:09:32;8.03;;;3.00;;
9898;SDS011;4988;49.238;6.698;2022-08-21T00:11:58;5.07;;;2.70;;
9898;SDS011;4988;49.238;6.698;2022-08-21T00:14:23;7.63;;;2.90;;
9898;SDS011;4988;49.238;6.698;2022-08-21T00:16:48;6.60;;;3.03;;
9898;SDS011;4988;49.238;6.698;2022-08-21T00:19:14;8.57;;;3.10;;
9898;SDS011;4988;49.238;6.698;2022-08-21T00:21:40;10.77;;;3.10;;
9898;SDS011;4988;49.238;6.698;2022-08-21T00:24:05;7.20;;;3.00;;
9898;SDS011;4988;49.238;6.698;2022-08-21T00:26:30;8.17;;;3.03;;
9898;SDS011;4988;49.238;6.698;2022-08-21T00:28:56;7.63;;;3.23;;
9898;SDS011;4988;49.238;6.698;2022-08-21T00:31:21;6.40;;;3.00;;
9898;SDS011;4988;49.238;6.698;2022-08-21T00:33:47;5.43;;;3.20;;
9898;SDS011;4988;49.238;6.698;2022-08-21T00:36:12;5.70;;;3.00;;
9898;SDS011;4988;49.238;6.698;2022-08-21T00:38:38;7.20;;;3.13;;
9898;SDS011;4988;49.238;6.698;2022-08-21T00:41:05;7.10;;;2.90;;
9898;SDS011;4988;49.238;6.698;2022-08-21T00:43:33;9.40;;;3.60;;
9898;SDS011;4988;49.238;6.698;2022-08-21T00:46:01;8.87;;;3.60;;
9898;SDS011;4988;49.238;6.698;2022-08-21T00:48:26;7.37;;;3.40;;
9898;SDS011;4988;49.238;6.698;2022-08-21T00:50:54;8.83;;;3.60;;
9898;SDS011;4988;49.238;6.698;2022-08-21T00:53:24;7.60;;;3.17;;
9898;SDS011;4988;49.238;6.698;2022-08-21T00:55:51;8.73;;;3.50;;
9898;SDS011;4988;49.238;6.698;2022-08-21T00:58:17;6.43;;;3.40;;
9898;SDS011;4988;49.238;6.698;2022-08-21T01:00:43;6.17;;;3.23;;
9898;SDS011;4988;49.238;6.698;2022-08-21T01:03:11;9.80;;;3.53;;
9898;SDS011;4988;49.238;6.698;2022-08-21T01:05:40;14.40;;;3.63;;
9898;SDS011;4988;49.238;6.698;2022-08-21T01:08:06;7.73;;;3.50;;
9898;SDS011;4988;49.238;6.698;2022-08-21T01:10:33;8.10;;;3.57;;
9898;SDS011;4988;49.238;6.698;2022-08-21T01:13:00;11.63;;;3.73;;
9898;SDS011;4988;49.238;6.698;2022-08-21T01:15:28;7.00;;;3.47;;
9898;SDS011;4988;49.238;6.698;2022-08-21T01:17:58;9.77;;;4.17;;
9898;SDS011;4988;49.238;6.698;2022-08-21T01:20:25;10.03;;;3.50;;
9898;SDS011;4988;49.238;6.698;2022-08-21T01:22:51;8.97;;;3.40;;
9898;SDS011;4988;49.238;6.698;2022-08-21T01:25:17;9.97;;;3.37;;
9898;SDS011;4988;49.238;6.698;2022-08-21T01:27:45;6.67;;;3.47;;
9898;SDS011;4988;49.238;6.698;2022-08-21T01:30:14;9.23;;;3.40;;
9898;SDS011;4988;49.238;6.698;2022-08-21T01:32:42;8.53;;;3.77;;
9898;SDS011;4988;49.238;6.698;2022-08-21T01:35:08;7.03;;;3.47;;
9898;SDS011;4988;49.238;6.698;2022-08-21T01:37:34;9.30;;;3.70;;
9898;SDS011;4988;49.238;6.698;2022-08-21T01:40:00;7.83;;;3.97;;
9898;SDS011;4988;49.238;6.698;2022-08-21T01:42:26;8.70;;;3.63;;
9898;SDS011;4988;49.238;6.698;2022-08-21T01:44:51;5.47;;;3.43;;
9898;SDS011;4988;49.238;6.698;2022-08-21T01:47:17;9.67;;;3.83;;
9898;SDS011;4988;49.238;6.698;2022-08-21T01:49:43;6.47;;;3.70;;
9898;SDS011;4988;49.238;6.698;2022-08-21T01:52:09;8.87;;;4.50;;
9898;SDS011;4988;49.238;6.698;2022-08-21T01:54:36;7.40;;;3.93;;
9898;SDS011;4988;49.238;6.698;2022-08-21T01:57:02;9.90;;;4.17;;
9898;SDS011;4988;49.238;6.698;2022-08-21T01:59:30;9.30;;;4.50;;
9898;SDS011;4988;49.238;6.698;2022-08-21T02:01:56;9.30;;;4.23;;
9898;SDS011;4988;49.238;6.698;2022-08-21T02:04:21;7.77;;;4.03;;
9898;SDS011;4988;49.238;6.698;2022-08-21T02:06:47;10.27;;;4.17;;
9898;SDS011;4988;49.238;6.698;2022-08-21T02:09:12;10.20;;;4.47;;
9898;SDS011;4988;49.238;6.698;2022-08-21T02:11:39;9.40;;;4.40;;
9898;SDS011;4988;49.238;6.698;2022-08-21T02:14:06;9.27;;;4.50;;
9898;SDS011;4988;49.238;6.698;2022-08-21T02:16:32;9.47;;;4.80;;
9898;SDS011;4988;49.238;6.698;2022-08-21T02:18:58;10.83;;;4.37;;
9898;SDS011;4988;49.238;6.698;2022-08-21T02:21:23;8.60;;;4.47;;
9898;SDS011;4988;49.238;6.698;2022-08-21T02:23:49;9.13;;;4.33;;
9898;SDS011;4988;49.238;6.698;2022-08-21T02:26:14;8.63;;;4.17;;
9898;SDS011;4988;49.238;6.698;2022-08-21T02:28:40;10.70;;;4.20;;
9898;SDS011;4988;49.238;6.698;2022-08-21T02:31:07;8.40;;;4.00;;
9898;SDS011;4988;49.238;6.698;2022-08-21T02:33:32;7.27;;;3.90;;
9898;SDS011;4988;49.238;6.698;2022-08-21T02:35:58;10.93;;;4.00;;
9898;SDS011;4988;49.238;6.698;2022-08-21T02:38:27;8.47;;;4.07;;
9898;SDS011;4988;49.238;6.698;2022-08-21T02:40:54;8.67;;;4.60;;
9898;SDS011;4988;49.238;6.698;2022-08-21T02:43:21;7.43;;;4.37;;
9898;SDS011;4988;49.238;6.698;2022-08-21T02:45:48;8.30;;;4.20;;
9898;SDS011;4988;49.238;6.698;2022-08-21T02:48:16;12.90;;;5.10;;
9898;SDS011;4988;49.238;6.698;2022-08-21T02:50:46;11.80;;;4.80;;
9898;SDS011;4988;49.238;6.698;2022-08-21T02:53:16;8.80;;;4.53;;
9898;SDS011;4988;49.238;6.698;2022-08-21T02:55:42;8.37;;;4.37;;
9898;SDS011;4988;49.238;6.698;2022-08-21T02:58:09;9.73;;;4.90;;
9898;SDS011;4988;49.238;6.698;2022-08-21T03:00:36;12.33;;;4.63;;
9898;SDS011;4988;49.238;6.698;2022-08-21T03:03:02;9.30;;;4.50;;
9898;SDS011;4988;49.238;6.698;2022-08-21T03:05:29;6.47;;;3.90;;
9898;SDS011;4988;49.238;6.698;2022-08-21T03:07:58;9.97;;;4.80;;
9898;SDS011;4988;49.238;6.698;2022-08-21T03:10:25;6.83;;;4.30;;
9898;SDS011;4988;49.238;6.698;2022-08-21T03:12:51;8.53;;;4.80;;
9898;SDS011;4988;49.238;6.698;2022-08-21T03:15:18;7.70;;;4.10;;
9898;SDS011;4988;49.238;6.698;2022-08-21T03:17:45;15.80;;;4.43;;
9898;SDS011;4988;49.238;6.698;2022-08-21T03:20:12;7.77;;;4.50;;
9898;SDS011;4988;49.238;6.698;2022-08-21T03:22:39;9.13;;;3.97;;
9898;SDS011;4988;49.238;6.698;2022-08-21T03:25:06;7.53;;;4.20;;
9898;SDS011;4988;49.238;6.698;2022-08-21T03:27:31;9.23;;;4.43;;
9898;SDS011;4988;49.238;6.698;2022-08-21T03:29:58;10.33;;;4.27;;
9898;SDS011;4988;49.238;6.698;2022-08-21T03:32:24;8.73;;;4.70;;
9898;SDS011;4988;49.238;6.698;2022-08-21T03:34:49;7.93;;;5.00;;
9898;SDS011;4988;49.238;6.698;2022-08-21T03:37:15;10.60;;;4.83;;
9898;SDS011;4988;49.238;6.698;2022-08-21T03:39:40;10.37;;;4.30;;
9898;SDS011;4988;49.238;6.698;2022-08-21T03:42:08;7.47;;;4.50;;
9898;SDS011;4988;49.238;6.698;2022-08-21T03:44:34;8.23;;;4.60;;
9898;SDS011;4988;49.238;6.698;2022-08-21T03:47:00;7.50;;;4.30;;
9898;SDS011;4988;49.238;6.698;2022-08-21T03:49:25;7.70;;;4.17;;
9898;SDS011;4988;49.238;6.698;2022-08-21T03:51:52;8.33;;;4.37;;
9898;SDS011;4988;49.238;6.698;2022-08-21T03:54:18;7.63;;;4.20;;
9898;SDS011;4988;49.238;6.698;2022-08-21T03:56:44;11.67;;;4.67;;
9898;SDS011;4988;49.238;6.698;2022-08-21T03:59:09;12.60;;;4.60;;
9898;SDS011;4988;49.238;6.698;2022-08-21T04:01:35;6.37;;;4.20;;
9898;SDS011;4988;49.238;6.698;2022-08-21T04:04:01;7.97;;;4.50;;
9898;SDS011;4988;49.238;6.698;2022-08-21T04:06:26;9.17;;;4.43;;
9898;SDS011;4988;49.238;6.698;2022-08-21T04:08:52;23.73;;;6.20;;
9898;SDS011;4988;49.238;6.698;2022-08-21T04:11:18;8.97;;;4.13;;
9898;SDS011;4988;49.238;6.698;2022-08-21T04:13:44;8.40;;;4.27;;
9898;SDS011;4988;49.238;6.698;2022-08-21T04:16:10;9.60;;;4.20;;
9898;SDS011;4988;49.238;6.698;2022-08-21T04:18:36;9.13;;;4.77;;
9898;SDS011;4988;49.238;6.698;2022-08-21T04:21:01;6.60;;;4.00;;
9898;SDS011;4988;49.238;6.698;2022-08-21T04:23:27;6.20;;;3.90;;
9898;SDS011;4988;49.238;6.698;2022-08-21T04:25:54;6.93;;;4.03;;
9898;SDS011;4988;49.238;6.698;2022-08-21T04:28:20;7.47;;;4.30;;
9898;SDS011;4988;49.238;6.698;2022-08-21T04:30:46;10.47;;;4.93;;
9898;SDS011;4988;49.238;6.698;2022-08-21T04:33:12;8.30;;;4.57;;
9898;SDS011;4988;49.238;6.698;2022-08-21T04:35:38;8.97;;;4.60;;
9898;SDS011;4988;49.238;6.698;2022-08-21T04:38:03;12.57;;;4.03;;
9898;SDS011;4988;49.238;6.698;2022-08-21T04:40:29;8.23;;;3.70;;
9898;SDS011;4988;49.238;6.698;2022-08-21T04:42:56;9.37;;;4.13;;
9898;SDS011;4988;49.238;6.698;2022-08-21T04:47:54;9.93;;;4.10;;
9898;SDS011;4988;49.238;6.698;2022-08-21T04:50:22;6.97;;;3.90;;
9898;SDS011;4988;49.238;6.698;2022-08-21T04:52:51;7.27;;;4.00;;
9898;SDS011;4988;49.238;6.698;2022-08-21T04:55:17;5.87;;;3.80;;
9898;SDS011;4988;49.238;6.698;2022-08-21T04:57:43;7.17;;;4.33;;
9898;SDS011;4988;49.238;6.698;2022-08-21T05:00:09;6.63;;;3.90;;
9898;SDS011;4988;49.238;6.698;2022-08-21T05:02:37;5.87;;;4.00;;
9898;SDS011;4988;49.238;6.698;2022-08-21T05:05:04;10.00;;;4.40;;
9898;SDS011;4988;49.238;6.698;2022-08-21T05:07:31;10.03;;;4.67;;
9898;SDS011;4988;49.238;6.698;2022-08-21T05:09:57;9.27;;;4.20;;
9898;SDS011;4988;49.238;6.698;2022-08-21T05:12:24;7.53;;;4.70;;
9898;SDS011;4988;49.238;6.698;2022-08-21T05:14:49;7.40;;;4.40;;
9898;SDS011;4988;49.238;6.698;2022-08-21T05:17:15;8.37;;;4.20;;
9898;SDS011;4988;49.238;6.698;2022-08-21T05:19:40;7.70;;;4.57;;
9898;SDS011;4988;49.238;6.698;2022-08-21T05:22:06;10.07;;;4.10;;
9898;SDS011;4988;49.238;6.698;2022-08-21T05:24:31;7.63;;;4.00;;
9898;SDS011;4988;49.238;6.698;2022-08-21T05:26:57;8.87;;;4.03;;
9898;SDS011;4988;49.238;6.698;2022-08-21T05:29:23;7.37;;;4.40;;
9898;SDS011;4988;49.238;6.698;2022-08-21T05:31:49;7.80;;;4.83;;
9898;SDS011;4988;49.238;6.698;2022-08-21T05:34:17;13.37;;;4.97;;
9898;SDS011;4988;49.238;6.698;2022-08-21T05:36:44;9.80;;;4.90;;
9898;SDS011;4988;49.238;6.698;2022-08-21T05:39:12;9.77;;;4.73;;
9898;SDS011;4988;49.238;6.698;2022-08-21T05:41:38;9.50;;;4.73;;
9898;SDS011;4988;49.238;6.698;2022-08-21T05:44:03;10.87;;;5.43;;
9898;SDS011;4988;49.238;6.698;2022-08-21T05:46:29;9.87;;;4.60;;
9898;SDS011;4988;49.238;6.698;2022-08-21T05:48:54;8.03;;;4.53;;
9898;SDS011;4988;49.238;6.698;2022-08-21T05:51:19;9.30;;;4.50;;
9898;SDS011;4988;49.238;6.698;2022-08-21T05:53:45;11.50;;;4.30;;
9898;SDS011;4988;49.238;6.698;2022-08-21T05:56:11;9.47;;;4.20;;
9898;SDS011;4988;49.238;6.698;2022-08-21T05:58:37;9.77;;;4.70;;
9898;SDS011;4988;49.238;6.698;2022-08-21T06:01:03;9.13;;;4.47;;
9898;SDS011;4988;49.238;6.698;2022-08-21T06:03:31;9.27;;;4.70;;
9898;SDS011;4988;49.238;6.698;2022-08-21T06:05:59;12.83;;;4.70;;
9898;SDS011;4988;49.238;6.698;2022-08-21T06:08:25;6.80;;;3.70;;
9898;SDS011;4988;49.238;6.698;2022-08-21T06:10:51;9.97;;;4.70;;
9898;SDS011;4988;49.238;6.698;2022-08-21T06:13:18;7.77;;;4.33;;
9898;SDS011;4988;49.238;6.698;2022-08-21T06:15:44;11.50;;;4.90;;
9898;SDS011;4988;49.238;6.698;2022-08-21T06:18:10;8.33;;;4.57;;
9898;SDS011;4988;49.238;6.698;2022-08-21T06:20:36;10.60;;;5.10;;
9898;SDS011;4988;49.238;6.698;2022-08-21T06:23:02;9.77;;;4.50;;
9898;SDS011;4988;49.238;6.698;2022-08-21T06:25:28;9.70;;;4.90;;
9898;SDS011;4988;49.238;6.698;2022-08-21T06:28:00;13.67;;;5.30;;
9898;SDS011;4988;49.238;6.698;2022-08-21T06:30:29;9.53;;;4.57;;
9898;SDS011;4988;49.238;6.698;2022-08-21T06:32:54;11.77;;;5.07;;
9898;SDS011;4988;49.238;6.698;2022-08-21T06:35:19;10.70;;;5.00;;
9898;SDS011;4988;49.238;6.698;2022-08-21T06:37:45;11.07;;;4.63;;
9898;SDS011;4988;49.238;6.698;2022-08-21T06:40:10;8.87;;;4.50;;
9898;SDS011;4988;49.238;6.698;2022-08-21T06:42:36;9.43;;;4.27;;
9898;SDS011;4988;49.238;6.698;2022-08-21T06:45:02;11.73;;;4.80;;
9898;SDS011;4988;49.238;6.698;2022-08-21T06:47:28;10.00;;;4.50;;
9898;SDS011;4988;49.238;6.698;2022-08-21T06:49:54;10.43;;;4.60;;
9898;SDS011;4988;49.238;6.698;2022-08-21T06:52:19;12.30;;;4.53;;
9898;SDS011;4988;49.238;6.698;2022-08-21T06:54:44;9.10;;;4.90;;
9898;SDS011;4988;49.238;6.698;2022-08-21T06:57:10;10.97;;;4.23;;
9898;SDS011;4988;49.238;6.698;2022-08-21T06:59:35;10.50;;;4.77;;
9898;SDS011;4988;49.238;6.698;2022-08-21T07:02:01;7.27;;;4.00;;
9898;SDS011;4988;49.238;6.698;2022-08-21T07:04:26;11.60;;;4.37;;
9898;SDS011;4988;49.238;6.698;2022-08-21T07:06:52;9.50;;;4.63;;
9898;SDS011;4988;49.238;6.698;2022-08-21T07:09:17;11.40;;;4.37;;
9898;SDS011;4988;49.238;6.698;2022-08-21T07:11:43;8.97;;;4.57;;
9898;SDS011;4988;49.238;6.698;2022-08-21T07:14:13;10.27;;;4.43;;
9898;SDS011;4988;49.238;6.698;2022-08-21T07:16:38;12.30;;;5.13;;
9898;SDS011;4988;49.238;6.698;2022-08-21T07:19:04;13.37;;;4.90;;
9898;SDS011;4988;49.238;6.698;2022-08-21T07:21:29;10.47;;;4.67;;
9898;SDS011;4988;49.238;6.698;2022-08-21T07:23:54;14.37;;;4.90;;
9898;SDS011;4988;49.238;6.698;2022-08-21T07:26:20;9.17;;;4.90;;
9898;SDS011;4988;49.238;6.698;2022-08-21T07:28:48;13.57;;;4.70;;
9898;SDS011;4988;49.238;6.698;2022-08-21T07:31:15;16.23;;;5.03;;
9898;SDS011;4988;49.238;6.698;2022-08-21T07:33:42;17.43;;;5.07;;
9898;SDS011;4988;49.238;6.698;2022-08-21T07:36:08;13.03;;;5.07;;
9898;SDS011;4988;49.238;6.698;2022-08-21T07:38:33;17.53;;;5.17;;
9898;SDS011;4988;49.238;6.698;2022-08-21T07:41:00;15.33;;;5.80;;
9898;SDS011;4988;49.238;6.698;2022-08-21T07:43:27;13.93;;;4.80;;
9898;SDS011;4988;49.238;6.698;2022-08-21T07:45:53;14.00;;;4.40;;
9898;SDS011;4988;49.238;6.698;2022-08-21T07:48:20;12.27;;;4.40;;
9898;SDS011;4988;49.238;6.698;2022-08-21T07:50:46;15.40;;;4.80;;
9898;SDS011;4988;49.238;6.698;2022-08-21T07:53:12;10.30;;;4.30;;
9898;SDS011;4988;49.238;6.698;2022-08-21T07:55:37;11.13;;;4.20;;
9898;SDS011;4988;49.238;6.698;2022-08-21T07:58:03;10.97;;;4.87;;
9898;SDS011;4988;49.238;6.698;2022-08-21T08:00:29;14.03;;;5.17;;
9898;SDS011;4988;49.238;6.698;2022-08-21T08:02:55;14.13;;;4.63;;
9898;SDS011;4988;49.238;6.698;2022-08-21T08:05:23;14.97;;;5.10;;
9898;SDS011;4988;49.238;6.698;2022-08-21T08:07:50;13.23;;;4.97;;
9898;SDS011;4988;49.238;6.698;2022-08-21T08:10:16;12.17;;;4.70;;
9898;SDS011;4988;49.238;6.698;2022-08-21T08:12:42;19.33;;;5.83;;
9898;SDS011;4988;49.238;6.698;2022-08-21T08:15:10;14.87;;;4.87;;
9898;SDS011;4988;49.238;6.698;2022-08-21T08:17:37;16.53;;;4.60;;
9898;SDS011;4988;49.238;6.698;2022-08-21T08:20:04;15.77;;;5.07;;
9898;SDS011;4988;49.238;6.698;2022-08-21T08:22:33;13.93;;;4.53;;
9898;SDS011;4988;49.238;6.698;2022-08-21T08:24:59;10.63;;;4.50;;
9898;SDS011;4988;49.238;6.698;2022-08-21T08:27:25;17.37;;;4.30;;
9898;SDS011;4988;49.238;6.698;2022-08-21T08:29:50;13.30;;;4.60;;
9898;SDS011;4988;49.238;6.698;2022-08-21T08:32:16;14.27;;;4.87;;
9898;SDS011;4988;49.238;6.698;2022-08-21T08:34:42;12.83;;;4.93;;
9898;SDS011;4988;49.238;6.698;2022-08-21T08:37:08;14.83;;;5.00;;
9898;SDS011;4988;49.238;6.698;2022-08-21T08:39:34;14.17;;;4.73;;
9898;SDS011;4988;49.238;6.698;2022-08-21T08:44:46;13.97;;;4.87;;
9898;SDS011;4988;49.238;6.698;2022-08-21T08:47:13;12.53;;;4.03;;
9898;SDS011;4988;49.238;6.698;2022-08-21T08:49:47;12.17;;;4.17;;
9898;SDS011;4988;49.238;6.698;2022-08-21T08:52:29;14.07;;;3.73;;
9898;SDS011;4988;49.238;6.698;2022-08-21T08:57:37;14.40;;;4.00;;
9898;SDS011;4988;49.238;6.698;2022-08-21T09:00:08;10.50;;;3.97;;
9898;SDS011;4988;49.238;6.698;2022-08-21T09:02:38;12.17;;;4.30;;
9898;SDS011;4988;49.238;6.698;2022-08-21T09:05:06;10.33;;;3.93;;
9898;SDS011;4988;49.238;6.698;2022-08-21T09:10:41;9.53;;;3.50;;
9898;SDS011;4988;49.238;6.698;2022-08-21T09:13:24;14.03;;;3.60;;
9898;SDS011;4988;49.238;6.698;2022-08-21T09:16:10;11.93;;;3.80;;
9898;SDS011;4988;49.238;6.698;2022-08-21T09:21:38;10.13;;;3.00;;
9898;SDS011;4988;49.238;6.698;2022-08-21T09:27:40;13.13;;;2.93;;
9898;SDS011;4988;49.238;6.698;2022-08-21T09:30:07;16.63;;;3.40;;
9898;SDS011;4988;49.238;6.698;2022-08-21T09:32:34;8.77;;;3.03;;
9898;SDS011;4988;49.238;6.698;2022-08-21T09:35:10;13.70;;;3.20;;
9898;SDS011;4988;49.238;6.698;2022-08-21T09:40:21;8.57;;;2.77;;
9898;SDS011;4988;49.238;6.698;2022-08-21T09:42:55;9.43;;;2.47;;
9898;SDS011;4988;49.238;6.698;2022-08-21T09:45:22;9.07;;;2.80;;
9898;SDS011;4988;49.238;6.698;2022-08-21T09:47:47;9.90;;;3.00;;
9898;SDS011;4988;49.238;6.698;2022-08-21T09:50:15;9.13;;;2.93;;
9898;SDS011;4988;49.238;6.698;2022-08-21T09:52:48;8.17;;;2.77;;
9898;SDS011;4988;49.238;6.698;2022-08-21T09:55:30;6.73;;;2.70;;
9898;SDS011;4988;49.238;6.698;2022-08-21T09:58:14;15.07;;;3.00;;
9898;SDS011;4988;49.238;6.698;2022-08-21T10:00:41;7.63;;;2.60;;
9898;SDS011;4988;49.238;6.698;2022-08-21T10:03:12;10.97;;;2.90;;
9898;SDS011;4988;49.238;6.698;2022-08-21T10:05:40;14.73;;;3.70;;
9898;SDS011;4988;49.238;6.698;2022-08-21T10:08:17;7.97;;;2.40;;
9898;SDS011;4988;49.238;6.698;2022-08-21T10:10:50;9.77;;;3.03;;
9898;SDS011;4988;49.238;6.698;2022-08-21T10:16:21;7.03;;;2.53;;
9898;SDS011;4988;49.238;6.698;2022-08-21T10:18:56;8.03;;;2.93;;
9898;SDS011;4988;49.238;6.698;2022-08-21T10:24:22;8.30;;;2.80;;
9898;SDS011;4988;49.238;6.698;2022-08-21T10:26:57;6.13;;;2.50;;
9898;SDS011;4988;49.238;6.698;2022-08-21T10:35:27;8.03;;;2.87;;
9898;SDS011;4988;49.238;6.698;2022-08-21T10:38:01;8.50;;;2.90;;
9898;SDS011;4988;49.238;6.698;2022-08-21T10:43:31;7.43;;;2.83;;
9898;SDS011;4988;49.238;6.698;2022-08-21T10:46:02;5.63;;;2.70;;
9898;SDS011;4988;49.238;6.698;2022-08-21T10:48:43;9.63;;;3.00;;
9898;SDS011;4988;49.238;6.698;2022-08-21T10:51:40;7.73;;;2.70;;
9898;SDS011;4988;49.238;6.698;2022-08-21T10:57:11;8.73;;;3.00;;
9898;SDS011;4988;49.238;6.698;2022-08-21T10:59:48;8.50;;;3.10;;
9898;SDS011;4988;49.238;6.698;2022-08-21T11:02:56;9.00;;;2.70;;
9898;SDS011;4988;49.238;6.698;2022-08-21T11:05:17;9.87;;;3.20;;
9898;SDS011;4988;49.238;6.698;2022-08-21T11:08:07;8.03;;;2.77;;
9898;SDS011;4988;49.238;6.698;2022-08-21T11:13:15;9.13;;;2.40;;
9898;SDS011;4988;49.238;6.698;2022-08-21T11:18:44;9.23;;;2.67;;
9898;SDS011;4988;49.238;6.698;2022-08-21T11:26:54;6.80;;;2.60;;
9898;SDS011;4988;49.238;6.698;2022-08-21T11:29:28;8.80;;;2.77;;
9898;SDS011;4988;49.238;6.698;2022-08-21T11:32:07;10.57;;;2.63;;
9898;SDS011;4988;49.238;6.698;2022-08-21T11:45:55;7.20;;;2.57;;
9898;SDS011;4988;49.238;6.698;2022-08-21T11:57:30;6.47;;;2.60;;
9898;SDS011;4988;49.238;6.698;2022-08-21T12:00:07;6.03;;;2.50;;
9898;SDS011;4988;49.238;6.698;2022-08-21T12:02:41;7.83;;;2.70;;
9898;SDS011;4988;49.238;6.698;2022-08-21T12:05:22;5.97;;;2.50;;
9898;SDS011;4988;49.238;6.698;2022-08-21T12:08:25;10.00;;;2.50;;
9898;SDS011;4988;49.238;6.698;2022-08-21T12:11:09;9.40;;;2.70;;
9898;SDS011;4988;49.238;6.698;2022-08-21T12:16:29;7.90;;;2.50;;
9898;SDS011;4988;49.238;6.698;2022-08-21T12:19:05;7.37;;;2.57;;
9898;SDS011;4988;49.238;6.698;2022-08-21T12:21:31;9.00;;;2.93;;
9898;SDS011;4988;49.238;6.698;2022-08-21T12:24:03;6.83;;;2.60;;
9898;SDS011;4988;49.238;6.698;2022-08-21T12:29:29;6.07;;;2.50;;
9898;SDS011;4988;49.238;6.698;2022-08-21T12:34:50;5.43;;;2.40;;
9898;SDS011;4988;49.238;6.698;2022-08-21T12:39:57;7.97;;;2.50;;
9898;SDS011;4988;49.238;6.698;2022-08-21T12:42:29;6.23;;;2.70;;
9898;SDS011;4988;49.238;6.698;2022-08-21T12:45:18;6.53;;;2.47;;
9898;SDS011;4988;49.238;6.698;2022-08-21T12:48:01;4.33;;;2.50;;
9898;SDS011;4988;49.238;6.698;2022-08-21T12:56:10;9.83;;;2.30;;
9898;SDS011;4988;49.238;6.698;2022-08-21T12:58:44;5.70;;;2.40;;
9898;SDS011;4988;49.238;6.698;2022-08-21T13:03:49;5.93;;;2.40;;
9898;SDS011;4988;49.238;6.698;2022-08-21T13:06:18;6.20;;;2.40;;
9898;SDS011;4988;49.238;6.698;2022-08-21T13:08:45;4.53;;;2.20;;
9898;SDS011;4988;49.238;6.698;2022-08-21T13:11:14;7.70;;;2.27;;
9898;SDS011;4988;49.238;6.698;2022-08-21T13:13:42;9.67;;;2.97;;
9898;SDS011;4988;49.238;6.698;2022-08-21T13:16:12;5.77;;;2.70;;
9898;SDS011;4988;49.238;6.698;2022-08-21T13:18:58;6.43;;;2.60;;
9898;SDS011;4988;49.238;6.698;2022-08-21T13:21:31;5.23;;;2.30;;
9898;SDS011;4988;49.238;6.698;2022-08-21T13:26:48;7.27;;;2.50;;
9898;SDS011;4988;49.238;6.698;2022-08-21T13:29:15;7.57;;;2.30;;
9898;SDS011;4988;49.238;6.698;2022-08-21T13:32:02;5.97;;;2.70;;
9898;SDS011;4988;49.238;6.698;2022-08-21T13:34:36;5.87;;;2.30;;
9898;SDS011;4988;49.238;6.698;2022-08-21T13:37:04;6.23;;;2.03;;
9898;SDS011;4988;49.238;6.698;2022-08-21T13:39:32;7.73;;;2.40;;
9898;SDS011;4988;49.238;6.698;2022-08-21T13:41:58;7.33;;;2.30;;
9898;SDS011;4988;49.238;6.698;2022-08-21T13:44:34;5.00;;;2.30;;
9898;SDS011;4988;49.238;6.698;2022-08-21T13:47:03;5.40;;;2.13;;
9898;SDS011;4988;49.238;6.698;2022-08-21T13:49:31;5.23;;;2.40;;
9898;SDS011;4988;49.238;6.698;2022-08-21T13:51:59;7.83;;;2.20;;
9898;SDS011;4988;49.238;6.698;2022-08-21T13:54:26;8.53;;;2.00;;
9898;SDS011;4988;49.238;6.698;2022-08-21T13:57:18;4.70;;;2.00;;
9898;SDS011;4988;49.238;6.698;2022-08-21T13:59:48;6.30;;;2.30;;
9898;SDS011;4988;49.238;6.698;2022-08-21T14:02:15;6.80;;;2.30;;
9898;SDS011;4988;49.238;6.698;2022-08-21T14:05:04;4.67;;;2.20;;
9898;SDS011;4988;49.238;6.698;2022-08-21T14:07:29;5.67;;;2.23;;
9898;SDS011;4988;49.238;6.698;2022-08-21T14:10:15;6.63;;;2.10;;
9898;SDS011;4988;49.238;6.698;2022-08-21T14:13:01;5.93;;;2.20;;
9898;SDS011;4988;49.238;6.698;2022-08-21T14:15:30;6.93;;;2.30;;
9898;SDS011;4988;49.238;6.698;2022-08-21T14:18:16;7.70;;;2.30;;
9898;SDS011;4988;49.238;6.698;2022-08-21T14:20:44;5.73;;;2.07;;
9898;SDS011;4988;49.238;6.698;2022-08-21T14:23:10;4.40;;;2.10;;
9898;SDS011;4988;49.238;6.698;2022-08-21T14:25:42;4.73;;;2.10;;
9898;SDS011;4988;49.238;6.698;2022-08-21T14:28:19;6.90;;;2.27;;
9898;SDS011;4988;49.238;6.698;2022-08-21T14:30:50;7.40;;;2.10;;
9898;SDS011;4988;49.238;6.698;2022-08-21T14:33:24;7.47;;;2.03;;
9898;SDS011;4988;49.238;6.698;2022-08-21T14:35:52;8.63;;;2.50;;
9898;SDS011;4988;49.238;6.698;2022-08-21T14:38:20;5.03;;;2.17;;
9898;SDS011;4988;49.238;6.698;2022-08-21T14:40:48;4.87;;;2.03;;
9898;SDS011;4988;49.238;6.698;2022-08-21T14:43:16;4.97;;;2.10;;
9898;SDS011;4988;49.238;6.698;2022-08-21T14:45:43;5.57;;;2.27;;
9898;SDS011;4988;49.238;6.698;2022-08-21T14:48:08;7.87;;;2.23;;
9898;SDS011;4988;49.238;6.698;2022-08-21T14:50:35;7.53;;;2.17;;
9898;SDS011;4988;49.238;6.698;2022-08-21T14:53:00;6.50;;;2.03;;
9898;SDS011;4988;49.238;6.698;2022-08-21T14:55:26;7.80;;;2.17;;
9898;SDS011;4988;49.238;6.698;2022-08-21T14:57:52;7.23;;;2.30;;
9898;SDS011;4988;49.238;6.698;2022-08-21T15:00:22;4.37;;;2.00;;
9898;SDS011;4988;49.238;6.698;2022-08-21T15:02:49;5.57;;;1.60;;
9898;SDS011;4988;49.238;6.698;2022-08-21T15:05:15;6.03;;;2.00;;
9898;SDS011;4988;49.238;6.698;2022-08-21T15:07:41;5.60;;;2.10;;
9898;SDS011;4988;49.238;6.698;2022-08-21T15:10:07;6.27;;;1.93;;
9898;SDS011;4988;49.238;6.698;2022-08-21T15:12:34;4.13;;;2.00;;
9898;SDS011;4988;49.238;6.698;2022-08-21T15:15:00;6.73;;;2.07;;
9898;SDS011;4988;49.238;6.698;2022-08-21T15:17:26;5.57;;;1.87;;
9898;SDS011;4988;49.238;6.698;2022-08-21T15:19:52;6.23;;;2.20;;
9898;SDS011;4988;49.238;6.698;2022-08-21T15:22:17;5.80;;;2.20;;
9898;SDS011;4988;49.238;6.698;2022-08-21T15:24:42;5.40;;;2.03;;
9898;SDS011;4988;49.238;6.698;2022-08-21T15:27:09;4.97;;;2.00;;
9898;SDS011;4988;49.238;6.698;2022-08-21T15:29:36;5.43;;;2.20;;
9898;SDS011;4988;49.238;6.698;2022-08-21T15:34:49;5.27;;;2.00;;
9898;SDS011;4988;49.238;6.698;2022-08-21T15:37:16;5.03;;;2.00;;
9898;SDS011;4988;49.238;6.698;2022-08-21T15:39:41;5.83;;;1.80;;
9898;SDS011;4988;49.238;6.698;2022-08-21T15:42:07;6.23;;;2.17;;
9898;SDS011;4988;49.238;6.698;2022-08-21T15:44:33;5.87;;;1.93;;
9898;SDS011;4988;49.238;6.698;2022-08-21T15:46:59;5.27;;;2.10;;
9898;SDS011;4988;49.238;6.698;2022-08-21T15:49:25;4.83;;;2.00;;
9898;SDS011;4988;49.238;6.698;2022-08-21T15:51:50;5.47;;;2.00;;
9898;SDS011;4988;49.238;6.698;2022-08-21T15:54:16;5.93;;;2.20;;
9898;SDS011;4988;49.238;6.698;2022-08-21T15:56:43;6.60;;;2.27;;
9898;SDS011;4988;49.238;6.698;2022-08-21T15:59:14;5.63;;;2.33;;
9898;SDS011;4988;49.238;6.698;2022-08-21T16:01:42;6.73;;;2.37;;
9898;SDS011;4988;49.238;6.698;2022-08-21T16:04:08;5.67;;;1.87;;
9898;SDS011;4988;49.238;6.698;2022-08-21T16:06:35;4.17;;;2.03;;
9898;SDS011;4988;49.238;6.698;2022-08-21T16:09:00;3.77;;;1.70;;
9898;SDS011;4988;49.238;6.698;2022-08-21T16:11:26;4.30;;;1.93;;
9898;SDS011;4988;49.238;6.698;2022-08-21T16:13:52;6.93;;;2.00;;
9898;SDS011;4988;49.238;6.698;2022-08-21T16:16:20;5.50;;;2.20;;
9898;SDS011;4988;49.238;6.698;2022-08-21T16:18:47;5.00;;;2.07;;
9898;SDS011;4988;49.238;6.698;2022-08-21T16:21:13;4.33;;;1.73;;
9898;SDS011;4988;49.238;6.698;2022-08-21T16:23:39;5.43;;;1.70;;
9898;SDS011;4988;49.238;6.698;2022-08-21T16:26:05;7.20;;;2.20;;
9898;SDS011;4988;49.238;6.698;2022-08-21T16:28:33;7.13;;;1.90;;
9898;SDS011;4988;49.238;6.698;2022-08-21T16:31:01;5.43;;;1.90;;
9898;SDS011;4988;49.238;6.698;2022-08-21T16:33:32;5.80;;;2.37;;
9898;SDS011;4988;49.238;6.698;2022-08-21T16:35:59;7.23;;;2.20;;
9898;SDS011;4988;49.238;6.698;2022-08-21T16:38:26;5.97;;;2.10;;
9898;SDS011;4988;49.238;6.698;2022-08-21T16:40:53;5.50;;;2.30;;
9898;SDS011;4988;49.238;6.698;2022-08-21T16:43:20;5.10;;;1.93;;
9898;SDS011;4988;49.238;6.698;2022-08-21T16:45:48;8.30;;;2.53;;
9898;SDS011;4988;49.238;6.698;2022-08-21T16:48:14;7.80;;;4.90;;
9898;SDS011;4988;49.238;6.698;2022-08-21T16:50:39;6.37;;;2.33;;
9898;SDS011;4988;49.238;6.698;2022-08-21T16:53:05;4.67;;;1.70;;
9898;SDS011;4988;49.238;6.698;2022-08-21T16:55:31;5.07;;;2.00;;